Latest Weather Observations for Moorabbin Airport

IDV60901

Issued at 8:41 am EST Thursday 26 May 2016 (issued every 10 minutes, with the page automatically refreshed every 10 minutes)

About weather observations | Map of Melbourne area stations | Latest observations for Melbourne area | Other Formats
Station Details ID: 086077 Name: MOORABBIN AIRPORT Lat: -37.98 Lon: 145.10 Height: 12.1 m
Data from the previous 72 hours. | See also: Recent months at Moorabbin Airport
Date/Time
EST
Tmp

°C
App
Tmp
°C
Dew
Point
°C
Rel
Hum
%
Delta-T

°C
Wind Press
QNH
hPa
Press
MSL
hPa
Rain
since
9 am
mm
Dir
 
Spd
km/h
Gust
km/h
Spd
kts
Gust
kts
26/08:39am 10.1 7.1 9.3 95 0.4 N 15 19 8 10 1003.3 1003.3 8.2
26/08:30am 10.1 7.5 9.3 95 0.4 N 13 17 7 9 1003.4 1003.4 7.8
26/08:00am 10.1 7.1 9.2 94 0.4 N 15 20 8 11 1003.4 1003.4 7.0
26/07:30am 10.2 7.5 9.1 93 0.5 N 13 20 7 11 1003.3 1003.3 6.6
26/07:23am 10.2 7.2 9.1 93 0.5 N 15 19 8 10 1003.4 1003.4 6.6
26/07:00am 10.3 7.3 9.1 92 0.6 N 15 19 8 10 1003.4 1003.4 6.6
26/06:30am 10.3 6.9 9.1 92 0.6 N 17 24 9 13 1003.5 1003.5 6.4
26/06:00am 10.3 6.9 9.1 92 0.6 N 17 22 9 12 1003.7 1003.7 6.4
26/05:30am 10.2 6.3 8.8 91 0.7 N 19 26 10 14 1003.7 1003.7 6.4
26/05:00am 10.5 6.4 8.8 89 0.8 N 20 30 11 16 1004.0 1004.0 6.4
26/04:30am 10.7 6.8 8.8 88 0.9 N 19 26 10 14 1004.1 1004.1 6.4
26/04:00am 10.9 7.4 8.8 87 1.0 N 17 20 9 11 1004.2 1004.2 6.4
26/03:30am 10.8 6.7 8.7 87 1.0 N 20 26 11 14 1004.6 1004.6 6.4
26/03:00am 10.9 7.4 8.7 86 1.1 N 17 20 9 11 1005.0 1005.0 6.4
26/02:30am 11.0 6.9 8.8 86 1.1 N 20 28 11 15 1005.3 1005.3 6.4
26/02:00am 10.7 6.8 8.8 88 0.9 N 19 24 10 13 1005.7 1005.7 6.4
26/01:30am 10.7 6.6 8.8 88 0.9 N 20 28 11 15 1005.9 1005.9 6.4
26/01:00am 10.6 6.5 8.7 88 0.9 N 20 26 11 14 1006.2 1006.2 6.4
26/12:30am 10.9 5.3 8.7 86 1.1 N 28 39 15 21 1006.5 1006.5 6.0
26/12:00am 10.7 5.1 8.8 88 0.9 N 28 35 15 19 1006.9 1006.9 6.0
 
Date/Time
EST
Tmp

°C
App
Tmp
°C
Dew
Point
°C
Rel
Hum
%
Delta-T

°C
Wind Press
QNH
hPa
Press
MSL
hPa
Rain
since
9 am
mm
Dir
 
Spd
km/h
Gust
km/h
Spd
kts
Gust
kts
25/11:30pm 10.9 5.4 9.0 88 0.9 N 28 39 15 21 1007.5 1007.5 5.6
25/11:00pm 11.1 5.5 8.8 86 1.1 N 28 43 15 23 1007.7 1007.7 4.6
25/10:30pm 11.1 5.8 9.7 91 0.7 N 28 37 15 20 1007.8 1007.8 4.6
25/10:00pm 11.2 5.1 9.6 90 0.8 N 32 41 17 22 1007.9 1007.9 3.8
25/09:46pm 11.2 5.0 9.5 89 0.9 N 32 48 17 26 1008.0 1008.0 3.6
25/09:32pm 11.5 6.1 9.6 88 1.0 N 28 46 15 25 1008.0 1008.0 3.0
25/09:30pm 11.6 6.2 9.5 87 1.1 NNW 28 39 15 21 1008.0 1008.0 3.0
25/09:00pm 11.7 5.9 9.4 86 1.2 N 30 46 16 25 1008.1 1008.1 2.8
25/08:44pm 11.8 5.6 9.2 84 1.3 N 32 50 17 27 1008.2 1008.2 2.4
25/08:30pm 12.3 5.4 8.8 79 1.7 N 35 48 19 26 1008.1 1008.1 2.0
25/08:00pm 12.4 6.5 8.9 79 1.8 NNW 30 39 16 21 1008.5 1008.5 2.0
25/07:30pm 12.6 6.9 8.5 76 2.0 NNW 28 46 15 25 1008.5 1008.5 2.0
25/07:26pm 12.8 7.1 8.5 75 2.1 NNW 28 46 15 25 1008.5 1008.5 2.0
25/07:00pm 13.0 7.2 8.1 72 2.4 NNW 28 44 15 24 1008.5 1008.5 2.0
25/06:30pm 12.9 7.2 8.4 74 2.2 N 28 39 15 21 1008.5 1008.5 2.0
25/06:03pm 13.2 7.5 8.5 73 2.3 NNW 28 46 15 25 1009.1 1009.1 2.0
25/06:00pm 13.2 6.8 8.5 73 2.4 NNW 32 46 17 25 1009.0 1009.0 2.0
25/05:30pm 12.8 7.8 9.4 80 1.7 N 26 39 14 21 1008.7 1008.7 2.0
25/05:00pm 12.6 8.0 9.6 82 1.5 N 24 30 13 16 1009.0 1009.0 1.8
25/04:30pm 12.5 7.1 9.5 82 1.5 N 28 41 15 22 1008.8 1008.8 1.8
25/04:00pm 12.4 7.0 9.4 82 1.5 N 28 39 15 21 1009.4 1009.4 1.8
25/03:30pm 12.9 8.2 9.2 78 1.9 N 24 32 13 17 1009.6 1009.6 1.0
25/03:00pm 13.3 8.1 9.0 75 2.2 N 26 35 14 19 1009.8 1009.8 0.4
25/02:34pm 14.2 7.0 7.7 65 3.2 N 35 54 19 29 1009.9 1009.9 0.0
25/02:30pm 14.6 7.1 7.9 64 3.3 N 37 54 20 29 1009.8 1009.8 0.0
25/02:04pm 15.5 8.5 6.8 56 4.3 NNW 33 59 18 32 1009.5 1009.5 0.0
25/02:00pm 15.6 8.2 6.9 56 4.3 NNW 35 48 19 26 1009.7 1009.7 0.0
25/01:37pm 16.1 8.7 6.8 54 4.6 NNW 35 54 19 29 1009.9 1009.9 0.0
25/01:30pm 16.5 7.9 6.6 52 4.9 NNW 41 54 22 29 1009.9 1009.9 0.0
25/01:00pm 15.8 7.5 6.3 53 4.6 NNW 39 52 21 28 1010.7 1010.7 0.0
25/12:48pm 15.8 7.9 6.3 53 4.6 NNW 37 61 20 33 1010.8 1010.8 0.0
25/12:30pm 16.1 8.3 6.8 54 4.6 N 37 50 20 27 1011.2 1011.2 0.0
25/12:00pm 15.6 9.2 8.4 62 3.6 N 32 41 17 22 1011.5 1011.5 0.0
25/11:30am 15.6 9.6 8.8 64 3.5 N 30 44 16 24 1012.4 1012.4 0.0
25/11:00am 14.5 9.0 9.1 70 2.8 N 28 41 15 22 1013.4 1013.4 0.0
25/10:30am 13.8 7.6 9.3 74 2.3 N 32 43 17 23 1013.8 1013.8 0.0
25/10:00am 13.6 7.1 9.1 74 2.3 N 33 44 18 24 1014.1 1014.1 0.0
25/09:30am 12.9 7.3 8.6 75 2.1 N 28 35 15 19 1014.4 1014.4 0.0
25/09:00am 11.7 7.0 7.8 77 1.9 N 22 30 12 16 1014.6 1014.6 0.0
25/08:30am 11.5 6.8 7.6 77 1.9 N 22 30 12 16 1014.8 1014.8 0.0
25/08:00am 11.1 6.9 7.4 78 1.8 N 19 22 10 12 1014.9 1014.9 0.0
25/07:30am 11.1 6.9 7.6 79 1.7 N 19 28 10 15 1015.2 1015.2 0.0
25/07:00am 10.5 7.3 7.0 79 1.7 NNE 13 17 7 9 1015.3 1015.3 0.0
25/06:30am 10.1 6.9 7.0 81 1.5 N 13 17 7 9 1015.4 1015.4 0.0
25/06:00am 8.8 5.4 5.7 81 1.4 N 13 19 7 10 1015.1 1015.1 0.0
25/05:30am 8.6 4.8 5.7 82 1.3 N 15 17 8 9 1015.4 1015.4 0.0
25/05:00am 9.4 5.7 6.1 80 1.5 NNE 15 20 8 11 1015.4 1015.4 0.0
25/04:30am 9.3 5.2 6.2 81 1.4 N 17 20 9 11 1015.6 1015.6 0.0
25/04:00am 8.8 5.0 5.7 81 1.4 N 15 17 8 9 1015.9 1015.9 0.0
25/03:30am 9.0 4.8 5.9 81 1.4 N 17 20 9 11 1016.3 1016.3 0.0
25/03:00am 9.3 5.2 6.0 80 1.5 N 17 20 9 11 1016.5 1016.5 0.0
25/02:30am 9.3 5.5 5.9 79 1.6 N 15 20 8 11 1016.7 1016.7 0.0
25/02:00am 9.3 5.6 6.2 81 1.4 N 15 19 8 10 1016.9 1016.9 0.0
25/01:30am 9.1 5.8 6.4 83 1.2 N 13 15 7 8 1017.1 1017.1 0.0
25/01:00am 8.2 5.5 5.8 85 1.1 N 9 11 5 6 1017.3 1017.3 0.0
25/12:30am 8.3 4.9 5.8 84 1.1 N 13 15 7 8 1017.6 1017.6 0.0
25/12:00am 8.1 5.8 5.7 85 1.1 NNW 7 9 4 5 1018.1 1018.1 0.0
 
Date/Time
EST
Tmp

°C
App
Tmp
°C
Dew
Point
°C
Rel
Hum
%
Delta-T

°C
Wind Press
QNH
hPa
Press
MSL
hPa
Rain
since
9 am
mm
Dir
 
Spd
km/h
Gust
km/h
Spd
kts
Gust
kts
24/11:30pm 8.1 5.9 5.4 83 1.2 N 6 7 3 4 1018.2 1018.2 0.0
24/11:00pm 8.8 6.7 5.9 82 1.3 NNE 6 7 3 4 1018.2 1018.2 0.0
24/10:30pm 8.9 6.3 6.0 82 1.3 N 9 11 5 6 1018.4 1018.4 0.0
24/10:00pm 9.3 5.9 6.0 80 1.5 N 13 13 7 7 1018.9 1018.9 0.0
24/09:30pm 10.3 7.9 7.2 81 1.5 N 9 11 5 6 1019.5 1019.5 0.0
24/09:00pm 9.2 6.8 6.8 85 1.1 NNW 9 11 5 6 1019.7 1019.7 0.0
24/08:30pm 9.5 7.1 7.1 85 1.1 N 9 15 5 8 1019.6 1019.6 0.0
24/08:00pm 9.2 6.3 6.6 84 1.2 N 11 11 6 6 1019.8 1019.8 0.0
24/07:30pm 9.6 7.0 6.3 80 1.5 NNW 9 9 5 5 1019.6 1019.6 0.0
24/07:00pm 10.1 7.4 5.7 74 2.0 NNW 9 9 5 5 1019.5 1019.5 0.0
24/06:30pm 10.7 9.0 5.9 72 2.2 WNW 4 6 2 3 1019.4 1019.4 0.0
24/06:00pm 11.8 9.6 6.1 68 2.7 WNW 7 9 4 5 1019.3 1019.3 0.0
24/05:30pm 12.5 10.3 6.1 65 3.0 NW 7 9 4 5 1019.1 1019.1 0.0
24/05:00pm 13.7 10.8 6.3 61 3.5 WNW 11 15 6 8 1019.1 1019.1 0.0
24/04:30pm 14.6 11.3 6.2 57 4.0 W 13 19 7 10 1019.3 1019.3 0.0
24/04:00pm 14.8 11.2 6.9 59 3.8 W 15 20 8 11 1019.3 1019.3 0.0
24/03:30pm 15.0 11.1 7.1 59 3.9 W 17 24 9 13 1019.2 1019.2 0.0
24/03:00pm 14.9 11.5 7.5 61 3.7 W 15 20 8 11 1019.2 1019.2 0.0
24/02:30pm 14.9 11.1 7.5 61 3.7 W 17 24 9 13 1019.2 1019.2 0.0
24/02:00pm 15.0 10.6 6.6 57 4.1 W 19 26 10 14 1019.2 1019.2 0.0
24/01:30pm 14.9 10.8 7.7 62 3.6 W 19 32 10 17 1019.4 1019.4 0.0
24/01:00pm 14.8 10.9 8.5 66 3.2 W 19 30 10 16 1019.5 1019.5 0.0
24/12:30pm 14.6 9.7 8.5 67 3.1 W 24 33 13 18 1019.8 1019.8 0.0
24/12:00pm 14.6 10.7 8.8 68 2.9 W 19 28 10 15 1020.1 1020.1 0.0
24/11:30am 14.2 9.4 9.0 71 2.6 W 24 35 13 19 1020.5 1020.5 0.0
24/11:00am 14.4 10.2 9.6 73 2.5 W 22 33 12 18 1020.9 1020.9 0.0
24/10:30am 13.7 9.4 9.2 74 2.3 WNW 22 35 12 19 1020.9 1020.9 0.0
24/10:00am 13.1 9.0 8.8 75 2.2 WNW 20 33 11 18 1021.0 1021.0 0.0
24/09:30am 12.9 9.0 9.4 79 1.8 WNW 20 26 11 14 1020.9 1020.9 0.0
24/09:00am 12.3 9.6 9.0 80 1.6 WNW 13 20 7 11 1020.9 1020.9 0.8
24/08:30am 12.2 9.1 9.0 81 1.6 W 15 22 8 12 1020.8 1020.8 0.8
24/08:00am 12.0 8.2 9.2 83 1.4 W 19 26 10 14 1020.5 1020.5 0.8
24/07:30am 11.4 8.3 9.0 85 1.2 WNW 15 20 8 11 1020.0 1020.0 0.8
24/07:00am 11.4 8.3 8.8 84 1.3 WNW 15 20 8 11 1019.6 1019.6 0.8
24/06:30am 11.6 8.4 8.5 81 1.5 WNW 15 22 8 12 1019.5 1019.5 0.8
24/06:00am 12.0 8.4 8.5 79 1.7 WNW 17 26 9 14 1019.4 1019.4 0.8
24/05:30am 11.9 8.7 8.6 80 1.6 WNW 15 22 8 12 1019.3 1019.3 0.8
24/05:00am 11.8 8.6 8.5 80 1.6 WNW 15 22 8 12 1019.1 1019.1 0.8
24/04:30am 12.1 9.0 8.9 81 1.6 W 15 24 8 13 1019.3 1019.3 0.8
24/04:00am 11.6 8.1 8.6 82 1.5 WNW 17 26 9 14 1018.9 1018.9 0.8
24/03:30am 12.0 8.6 9.2 83 1.4 WNW 17 28 9 15 1018.9 1018.9 0.8
24/03:00am 11.8 9.2 9.2 84 1.3 WNW 13 20 7 11 1019.0 1019.0 0.6
24/02:30am 11.3 8.5 8.7 84 1.3 WNW 13 19 7 10 1018.9 1018.9 0.6
24/02:00am 11.4 8.2 8.6 83 1.4 WNW 15 20 8 11 1018.9 1018.9 0.6
24/01:30am 11.6 8.1 8.8 83 1.4 WNW 17 26 9 14 1018.8 1018.8 0.6
24/01:00am 11.7 8.7 9.1 84 1.3 WNW 15 26 8 14 1018.9 1018.9 0.6
24/12:30am 11.4 8.7 9.0 85 1.2 WNW 13 20 7 11 1019.1 1019.1 0.6
24/12:00am 11.6 8.6 9.2 85 1.2 WNW 15 22 8 12 1019.3 1019.3 0.6
 
Date/Time
EST
Tmp

°C
App
Tmp
°C
Dew
Point
°C
Rel
Hum
%
Delta-T

°C
Wind Press
QNH
hPa
Press
MSL
hPa
Rain
since
9 am
mm
Dir
 
Spd
km/h
Gust
km/h
Spd
kts
Gust
kts
23/11:30pm 11.5 8.9 9.2 86 1.2 WNW 13 20 7 11 1019.3 1019.3 0.6
23/11:00pm 11.9 8.6 9.6 86 1.2 WNW 17 24 9 13 1019.1 1019.1 0.6
23/10:58pm 11.8 8.5 9.5 86 1.2 WNW 17 24 9 13 1019.2 1019.2 0.6
23/10:44pm 11.9 9.0 9.5 85 1.2 WNW 15 24 8 13 1019.2 1019.2 0.6
23/10:30pm 12.1 8.9 9.8 86 1.2 WNW 17 24 9 13 1019.2 1019.2 0.6
23/10:00pm 11.9 9.5 10.0 88 1.0 NW 13 19 7 10 1019.3 1019.3 0.6
23/09:30pm 11.5 9.4 9.6 88 1.0 NW 11 17 6 9 1019.2 1019.2 0.6
23/09:00pm 11.9 9.8 9.8 87 1.1 NW 11 17 6 9 1019.0 1019.0 0.6
23/08:30pm 11.9 9.8 9.6 86 1.2 NW 11 17 6 9 1019.0 1019.0 0.6
23/08:00pm 11.8 9.2 9.4 85 1.2 NW 13 19 7 10 1018.8 1018.8 0.6
23/07:30pm 12.0 9.5 9.6 85 1.2 WNW 13 22 7 12 1019.0 1019.0 0.6
23/07:00pm 12.1 9.1 9.3 83 1.4 W 15 20 8 11 1018.8 1018.8 0.6
23/06:30pm 12.3 10.0 9.0 80 1.7 W 11 17 6 9 1018.6 1018.6 0.2
23/06:00pm 12.2 9.4 8.7 79 1.7 W 13 20 7 11 1018.3 1018.3 0.0
23/05:30pm 12.6 9.8 8.5 76 2.0 W 13 22 7 12 1018.0 1018.0 0.0
23/05:00pm 12.4 8.8 8.5 77 1.9 WSW 17 24 9 13 1017.9 1017.9 0.0
23/04:30pm 12.2 7.2 7.9 75 2.1 WSW 24 33 13 18 1018.0 1018.0 0.0
23/04:00pm 12.8 8.5 7.9 72 2.4 SW 20 32 11 17 1017.6 1017.6 0.0
23/03:30pm 13.2 8.2 8.1 71 2.5 SW 24 35 13 19 1017.6 1017.6 0.0
23/03:00pm 15.1 9.3 6.1 55 4.3 W 26 39 14 21 1017.1 1017.1 0.0
23/02:30pm 15.5 9.0 4.8 49 5.0 W 28 43 15 23 1016.8 1016.8 0.0
23/02:22pm 16.3 9.9 5.3 48 5.3 W 28 46 15 25 1016.9 1016.9 0.0
23/02:00pm 15.6 9.3 5.5 51 4.8 W 28 43 15 23 1017.0 1017.0 0.0
23/01:44pm 15.1 8.8 5.6 53 4.5 W 28 48 15 26 1017.1 1017.1 0.0
23/01:30pm 15.4 8.3 5.6 52 4.7 W 32 43 17 23 1017.2 1017.2 0.0
23/01:04pm 15.3 9.0 5.5 52 4.7 W 28 46 15 25 1017.4 1017.4 0.0
23/01:00pm 15.4 9.1 5.9 53 4.6 W 28 41 15 22 1017.4 1017.4 0.0
23/12:30pm 14.9 8.5 5.4 53 4.5 W 28 44 15 24 1017.4 1017.4 0.0
23/12:00pm 14.7 8.5 6.0 56 4.2 W 28 43 15 23 1017.6 1017.6 0.0
23/11:30am 14.6 8.0 6.2 57 4.0 WNW 30 43 16 23 1017.7 1017.7 0.0
23/11:00am 13.7 7.7 7.0 64 3.2 W 28 39 15 21 1018.0 1018.0 0.0
23/10:30am 14.1 8.9 7.4 64 3.3 WNW 24 33 13 18 1017.6 1017.6 0.0
23/10:00am 13.5 8.2 6.8 64 3.2 WNW 24 35 13 19 1016.9 1016.9 0.0
23/09:30am 13.0 7.7 6.6 65 3.1 WNW 24 35 13 19 1016.9 1016.9 0.0
23/09:00am 12.6 7.7 7.1 69 2.6 WNW 22 37 12 20 1016.4 1016.4 4.8

Latest Capital City Observations: Canberra | Sydney | Melbourne | Brisbane | Adelaide | Perth | Hobart | Darwin

Other Formats:

Comma delimited format used in spreadsheet applications
http://www.bom.gov.au/fwo/IDV60901/IDV60901.94870.axf

JavaScript Object Notation format (JSON) in row-major order
http://www.bom.gov.au/fwo/IDV60901/IDV60901.94870.json